Time;durP1;ratioP1;P1;durP2;ratioP2;P2;SDS_P1;SDS_P2;PMS_P1;PMS_P2;Temp;Humidity;BMP_temperature;BMP_pressure;BME280_temperature;BME280_humidity;BME280_pressure;Samples;Min_cycle;Max_cycle;Signal;HPM_P1;HPM_P2
2022/06/08 00:00:42;;;;;;;0.00;0.00;;;15.40;96.30;;;;;;4202639;28;20540;-75
2022/06/08 00:03:09;;;;;;;0.00;0.00;;;15.50;96.30;;;;;;4202355;28;20086;-74
2022/06/08 00:05:35;;;;;;;0.00;0.00;;;15.50;96.20;;;;;;4202261;28;20429;-76
2022/06/08 00:07:59;;;;;;;0.00;0.00;;;15.50;96.20;;;;;;4216935;28;20131;-75
2022/06/08 00:10:24;;;;;;;0.00;0.00;;;15.50;96.20;;;;;;4174745;28;20137;-73
2022/06/08 00:12:47;;;;;;;0.00;0.00;;;15.50;96.20;;;;;;4202233;28;20113;-71
2022/06/08 00:15:11;;;;;;;0.00;0.00;;;15.50;96.10;;;;;;4202270;28;20060;-73
2022/06/08 00:17:41;;;;;;;0.00;0.00;;;15.50;96.00;;;;;;4188912;28;20060;-74
2022/06/08 00:20:15;;;;;;;0.00;0.00;;;15.40;96.10;;;;;;4216929;28;20052;-73
2022/06/08 00:22:38;;;;;;;0.00;0.00;;;15.30;96.20;;;;;;4202063;28;20547;-73
2022/06/08 00:25:04;;;;;;;0.00;0.00;;;15.40;96.20;;;;;;4216026;28;20056;-74
2022/06/08 00:27:28;;;;;;;0.00;0.00;;;15.40;96.10;;;;;;4188437;28;20052;-74
2022/06/08 00:29:55;;;;;;;0.00;0.00;;;15.40;96.00;;;;;;4216904;28;20075;-74
2022/06/08 00:32:31;;;;;;;0.00;0.00;;;15.30;96.00;;;;;;4203588;28;20063;-73
2022/06/08 00:35:01;;;;;;;0.00;0.00;;;15.30;96.10;;;;;;4184185;28;20463;-73
2022/06/08 00:37:25;;;;;;;0.00;0.00;;;15.20;96.10;;;;;;4168795;28;20581;-74
2022/06/08 00:40:05;;;;;;;0.00;0.00;;;15.20;96.10;;;;;;4182240;28;20053;-76
2022/06/08 00:42:32;;;;;;;0.00;0.00;;;15.20;96.10;;;;;;4168643;28;20067;-73
2022/06/08 00:45:10;;;;;;;0.00;0.00;;;15.10;96.30;;;;;;4169474;28;20136;-74
2022/06/08 00:47:50;;;;;;;0.00;0.00;;;15.10;96.30;;;;;;4183221;28;20048;-76
2022/06/08 00:50:18;;;;;;;0.00;0.00;;;15.10;96.30;;;;;;4155451;28;20092;-74
2022/06/08 00:52:46;;;;;;;0.00;0.00;;;15.10;96.20;;;;;;4155165;28;20457;-71
2022/06/08 00:55:14;;;;;;;0.00;0.00;;;15.20;96.20;;;;;;4168499;28;20474;-74
2022/06/08 00:58:05;;;;;;;0.00;0.00;;;15.20;96.20;;;;;;4141885;28;20053;-75
2022/06/08 01:00:46;;;;;;;0.00;0.00;;;15.10;96.00;;;;;;4171058;28;20060;-73
2022/06/08 01:03:14;;;;;;;0.00;0.00;;;15.20;96.00;;;;;;4155818;28;20045;-73
2022/06/08 01:06:03;;;;;;;0.00;0.00;;;15.30;95.90;;;;;;4169561;28;20110;-74
2022/06/08 01:08:39;;;;;;;0.00;0.00;;;15.30;95.90;;;;;;4168029;28;20128;-73
2022/06/08 01:11:11;;;;;;;0.00;0.00;;;15.20;95.90;;;;;;4154613;28;20054;-73
2022/06/08 01:13:38;;;;;;;0.00;0.00;;;15.20;95.90;;;;;;4154431;28;20046;-74
2022/06/08 01:16:13;;;;;;;0.00;0.00;;;15.20;95.80;;;;;;4168806;28;20055;-71
2022/06/08 01:18:39;;;;;;;0.00;0.00;;;15.10;96.00;;;;;;4154168;28;20357;-75
2022/06/08 01:21:18;;;;;;;0.00;0.00;;;15.20;96.00;;;;;;4169143;28;20517;-74
2022/06/08 01:24:03;;;;;;;0.00;0.00;;;15.30;95.90;;;;;;4156006;28;20665;-73
2022/06/08 01:27:07;;;;;;;0.00;0.00;;;15.40;95.80;;;;;;4154657;28;20141;-73
2022/06/08 01:29:57;;;;;;;0.00;0.00;;;15.40;95.70;;;;;;4167761;28;20088;-74
2022/06/08 01:32:19;;;;;;;0.00;0.00;;;15.50;95.70;;;;;;4181381;28;20053;-75
2022/06/08 01:35:06;;;;;;;0.00;0.00;;;15.50;95.60;;;;;;4190524;28;20052;-72
2022/06/08 01:37:34;;;;;;;0.00;0.00;;;15.50;95.50;;;;;;4170470;28;20068;-73
2022/06/08 01:40:21;;;;;;;0.00;0.00;;;15.40;95.70;;;;;;4184074;28;20364;-74
2022/06/08 01:43:04;;;;;;;0.00;0.00;;;15.40;95.70;;;;;;4170163;28;20098;-73
2022/06/08 01:45:40;;;;;;;0.00;0.00;;;15.50;95.80;;;;;;4170445;28;20053;-72
2022/06/08 01:48:02;;;;;;;0.00;0.00;;;15.50;95.60;;;;;;4170087;28;20052;-74
2022/06/08 01:50:50;;;;;;;0.00;0.00;;;15.60;95.60;;;;;;4170543;28;20504;-71
2022/06/08 01:53:47;;;;;;;0.00;0.00;;;15.60;95.50;;;;;;4184215;28;20183;-73
2022/06/08 01:56:28;;;;;;;0.00;0.00;;;15.70;95.40;;;;;;4170089;28;20046;-74
2022/06/08 01:59:24;;;;;;;0.00;0.00;;;15.60;95.30;;;;;;4170185;28;20065;-74
2022/06/08 02:02:12;;;;;;;0.00;0.00;;;15.50;95.40;;;;;;4176841;28;20511;-73
2022/06/08 02:04:50;;;;;;;0.00;0.00;;;15.40;95.60;;;;;;4170049;28;20065;-72
2022/06/08 02:07:20;;;;;;;0.00;0.00;;;15.20;95.80;;;;;;4169977;28;20053;-73
2022/06/08 02:09:48;;;;;;;0.00;0.00;;;15.30;95.80;;;;;;4163078;28;20148;-73
2022/06/08 02:12:16;;;;;;;0.00;0.00;;;15.30;95.70;;;;;;4170240;28;20447;-72
2022/06/08 02:14:53;;;;;;;0.00;0.00;;;15.40;95.60;;;;;;4170106;28;20061;-72
2022/06/08 02:17:38;;;;;;;0.00;0.00;;;15.40;95.50;;;;;;4183499;28;20067;-71
2022/06/08 02:20:21;;;;;;;0.00;0.00;;;15.30;95.50;;;;;;4169868;28;20149;-71
2022/06/08 02:23:10;;;;;;;0.00;0.00;;;15.30;95.70;;;;;;4169921;28;20571;-73
2022/06/08 02:25:39;;;;;;;0.00;0.00;;;15.30;95.70;;;;;;4170144;28;20049;-72
2022/06/08 02:28:29;;;;;;;0.00;0.00;;;15.40;95.70;;;;;;4183728;28;20041;-74
2022/06/08 02:30:59;;;;;;;0.00;0.00;;;15.50;95.50;;;;;;4169802;28;20456;-74
2022/06/08 02:36:20;;;;;;;0.00;0.00;;;15.60;95.30;;;;;;4183493;28;20088;-73
2022/06/08 02:38:52;;;;;;;0.00;0.00;;;15.70;95.20;;;;;;4183469;28;20124;-74
2022/06/08 02:41:16;;;;;;;0.00;0.00;;;15.80;95.20;;;;;;4169772;28;20057;-70
2022/06/08 02:43:53;;;;;;;0.00;0.00;;;15.80;95.10;;;;;;4155677;28;20061;-73
2022/06/08 02:46:41;;;;;;;0.00;0.00;;;15.80;95.10;;;;;;4183533;28;20049;-74
2022/06/08 02:49:09;;;;;;;0.00;0.00;;;15.80;95.10;;;;;;4188747;28;20048;-73
2022/06/08 02:51:33;;;;;;;0.00;0.00;;;15.80;95.20;;;;;;4174927;28;20068;-72
2022/06/08 02:54:03;;;;;;;0.00;0.00;;;15.70;95.40;;;;;;4188909;28;20471;-72
2022/06/08 02:56:40;;;;;;;0.00;0.00;;;15.70;95.50;;;;;;4175139;28;20057;-76
2022/06/08 02:59:19;;;;;;;0.00;0.00;;;15.80;95.50;;;;;;4161204;28;20141;-73
2022/06/08 03:01:52;;;;;;;0.00;0.00;;;15.90;95.40;;;;;;4175035;28;20057;-73
2022/06/08 03:04:23;;;;;;;0.00;0.00;;;15.90;95.40;;;;;;4174772;28;20051;-74
2022/06/08 03:07:13;;;;;;;0.00;0.00;;;15.80;95.40;;;;;;4175081;28;20068;-74
2022/06/08 03:09:36;;;;;;;0.00;0.00;;;15.70;95.60;;;;;;4189113;28;20135;-73
2022/06/08 03:12:05;;;;;;;0.00;0.00;;;15.70;95.80;;;;;;4174818;28;20049;-74
2022/06/08 03:14:32;;;;;;;0.00;0.00;;;15.60;95.90;;;;;;4161063;28;20053;-71
2022/06/08 03:17:03;;;;;;;0.00;0.00;;;15.60;96.00;;;;;;4174908;28;20392;-74
2022/06/08 03:19:33;;;;;;;0.00;0.00;;;15.70;96.00;;;;;;4188440;28;20098;-74
2022/06/08 03:22:01;;;;;;;0.00;0.00;;;15.70;95.90;;;;;;4174738;28;20085;-73
2022/06/08 03:24:30;;;;;;;0.00;0.00;;;15.80;95.80;;;;;;4188541;28;20076;-70
2022/06/08 03:27:03;;;;;;;0.00;0.00;;;15.80;95.70;;;;;;4189067;28;20033;-75
2022/06/08 03:29:32;;;;;;;0.00;0.00;;;15.90;95.60;;;;;;4174916;28;20053;-73
2022/06/08 03:31:55;;;;;;;0.00;0.00;;;15.70;95.70;;;;;;4175078;28;20070;-73
2022/06/08 03:34:20;;;;;;;0.00;0.00;;;15.70;95.80;;;;;;4174239;28;20061;-75
2022/06/08 03:36:47;;;;;;;0.00;0.00;;;15.60;95.90;;;;;;4188646;28;20049;-75
2022/06/08 03:39:13;;;;;;;0.00;0.00;;;15.50;95.90;;;;;;4174624;28;20111;-76
2022/06/08 03:41:38;;;;;;;0.00;0.00;;;15.40;96.10;;;;;;4160991;28;20091;-75
2022/06/08 03:44:04;;;;;;;0.00;0.00;;;15.40;96.20;;;;;;4174859;28;20053;-74
2022/06/08 03:46:33;;;;;;;0.00;0.00;;;15.40;96.20;;;;;;4174567;28;20067;-73
2022/06/08 03:48:56;;;;;;;0.00;0.00;;;15.30;96.30;;;;;;4188506;28;20084;-75
2022/06/08 03:51:19;;;;;;;0.00;0.00;;;15.20;96.40;;;;;;4188836;28;20061;-73
2022/06/08 03:53:47;;;;;;;0.00;0.00;;;15.20;96.40;;;;;;4188779;28;20079;-76
2022/06/08 03:56:11;;;;;;;0.00;0.00;;;15.10;96.50;;;;;;4174456;28;20041;-71
2022/06/08 03:58:39;;;;;;;0.00;0.00;;;15.00;96.70;;;;;;4172337;28;20045;-74
2022/06/08 04:01:07;;;;;;;0.00;0.00;;;14.90;96.70;;;;;;4172510;28;20144;-72
2022/06/08 04:03:34;;;;;;;0.00;0.00;;;14.90;96.70;;;;;;4171815;28;20053;-73
2022/06/08 04:06:00;;;;;;;0.00;0.00;;;14.90;96.80;;;;;;4172324;28;20057;-75
2022/06/08 04:08:33;;;;;;;0.00;0.00;;;14.90;96.80;;;;;;4174005;28;20052;-72
2022/06/08 04:10:57;;;;;;;0.00;0.00;;;14.80;96.80;;;;;;4180448;28;20131;-74
2022/06/08 04:13:22;;;;;;;0.00;0.00;;;14.80;96.90;;;;;;4172125;28;20058;-72
2022/06/08 04:15:51;;;;;;;0.00;0.00;;;14.70;96.90;;;;;;4186155;28;20056;-73
2022/06/08 04:18:30;;;;;;;0.00;0.00;;;14.70;96.80;;;;;;4171788;28;20068;-73
2022/06/08 04:21:02;;;;;;;0.00;0.00;;;14.90;96.80;;;;;;4172228;28;20471;-74
2022/06/08 04:23:35;;;;;;;0.00;0.00;;;15.00;96.60;;;;;;4172035;28;20056;-73
2022/06/08 04:25:59;;;;;;;0.00;0.00;;;15.00;96.60;;;;;;4171862;28;20053;-73
2022/06/08 04:28:26;;;;;;;0.00;0.00;;;15.00;96.60;;;;;;4171911;28;20061;-72
2022/06/08 04:30:58;;;;;;;0.00;0.00;;;15.00;96.70;;;;;;4171689;28;20049;-75
2022/06/08 04:33:28;;;;;;;0.00;0.00;;;15.00;96.70;;;;;;4171726;28;20060;-74
2022/06/08 04:35:53;;;;;;;0.00;0.00;;;15.00;96.80;;;;;;4185666;28;20054;-75
2022/06/08 04:38:16;;;;;;;0.00;0.00;;;15.00;96.70;;;;;;4185614;28;20041;-73
2022/06/08 04:40:41;;;;;;;0.00;0.00;;;15.00;96.80;;;;;;4171798;28;20550;-75
2022/06/08 04:43:04;;;;;;;0.00;0.00;;;15.00;96.90;;;;;;4171641;28;20061;-74
2022/06/08 04:45:27;;;;;;;0.00;0.00;;;15.00;97.00;;;;;;4157798;28;20053;-73
2022/06/08 04:47:51;;;;;;;0.00;0.00;;;15.10;97.00;;;;;;4185513;28;20076;-74
2022/06/08 04:50:14;;;;;;;0.00;0.00;;;15.10;97.00;;;;;;4185258;28;20076;-73
2022/06/08 04:52:41;;;;;;;0.00;0.00;;;15.10;97.00;;;;;;4172043;28;20072;-75
2022/06/08 04:55:13;;;;;;;0.00;0.00;;;15.00;96.90;;;;;;4171023;28;20080;-75
2022/06/08 04:57:39;;;;;;;0.00;0.00;;;15.10;96.90;;;;;;4158499;28;20424;-74
2022/06/08 05:00:06;;;;;;;0.00;0.00;;;15.10;96.60;;;;;;4171309;28;20427;-77
2022/06/08 05:02:44;;;;;;;0.00;0.00;;;15.20;96.50;;;;;;4172463;28;20143;-76
2022/06/08 05:05:16;;;;;;;0.00;0.00;;;15.30;96.30;;;;;;4171286;28;20467;-76
2022/06/08 05:07:39;;;;;;;0.00;0.00;;;15.30;96.20;;;;;;4157447;28;20073;-75
2022/06/08 05:10:05;;;;;;;0.00;0.00;;;15.40;96.00;;;;;;4170971;28;20134;-76
2022/06/08 05:12:28;;;;;;;0.00;0.00;;;15.30;96.00;;;;;;4170606;28;20064;-74
2022/06/08 05:14:50;;;;;;;0.00;0.00;;;15.40;96.00;;;;;;4165128;28;20135;-78
2022/06/08 05:17:13;;;;;;;0.00;0.00;;;15.40;95.90;;;;;;4171283;28;20078;-76
2022/06/08 05:19:35;;;;;;;0.00;0.00;;;15.50;95.80;;;;;;4157474;28;20647;-75
2022/06/08 05:21:59;;;;;;;0.00;0.00;;;15.70;95.70;;;;;;4165861;28;20053;-74
2022/06/08 05:24:21;;;;;;;0.00;0.00;;;15.70;95.40;;;;;;4184984;28;20382;-77
2022/06/08 05:26:47;;;;;;;0.00;0.00;;;15.80;95.30;;;;;;4170760;28;20060;-75
2022/06/08 05:29:13;;;;;;;0.00;0.00;;;16.00;94.90;;;;;;4171027;28;20095;-75
2022/06/08 05:31:35;;;;;;;0.00;0.00;;;16.10;94.80;;;;;;4176464;28;20059;-74
2022/06/08 05:34:00;;;;;;;0.00;0.00;;;16.30;94.60;;;;;;4165010;28;20089;-75
2022/06/08 05:36:27;;;;;;;0.00;0.00;;;16.30;94.10;;;;;;4171023;28;20412;-75
2022/06/08 05:38:51;;;;;;;0.00;0.00;;;16.40;94.00;;;;;;4184777;28;20102;-76
2022/06/08 05:41:21;;;;;;;0.00;0.00;;;16.40;93.60;;;;;;4158164;28;20164;-74
2022/06/08 05:43:43;;;;;;;0.00;0.00;;;16.40;93.60;;;;;;4184936;28;20213;-72
2022/06/08 05:46:11;;;;;;;0.00;0.00;;;16.50;93.60;;;;;;4184438;28;20091;-75
2022/06/08 05:48:36;;;;;;;0.00;0.00;;;16.60;93.30;;;;;;4170459;28;20046;-74
2022/06/08 05:51:03;;;;;;;0.00;0.00;;;16.80;93.10;;;;;;4170682;28;20371;-77
2022/06/08 05:53:25;;;;;;;0.00;0.00;;;16.80;92.90;;;;;;4170736;28;20080;-73
2022/06/08 05:55:51;;;;;;;0.00;0.00;;;16.70;93.10;;;;;;4157127;28;20111;-73
2022/06/08 05:58:13;;;;;;;0.00;0.00;;;16.80;92.90;;;;;;4170510;28;20057;-75
2022/06/08 06:00:40;;;;;;;0.00;0.00;;;16.80;92.70;;;;;;4170288;28;20056;-73
2022/06/08 06:03:06;;;;;;;0.00;0.00;;;16.80;92.70;;;;;;4170658;28;20045;-74
2022/06/08 06:05:39;;;;;;;0.00;0.00;;;16.90;92.50;;;;;;4184564;28;20064;-74
2022/06/08 06:08:12;;;;;;;0.00;0.00;;;17.10;92.50;;;;;;4184182;28;20050;-76
2022/06/08 06:10:41;;;;;;;0.00;0.00;;;17.20;92.30;;;;;;4158226;28;20049;-75
2022/06/08 06:13:09;;;;;;;0.00;0.00;;;17.20;92.00;;;;;;4170100;28;20444;-74
2022/06/08 06:15:41;;;;;;;0.00;0.00;;;17.20;91.90;;;;;;4184159;28;20541;-75
2022/06/08 06:18:09;;;;;;;0.00;0.00;;;17.20;91.70;;;;;;4157515;28;20045;-77
2022/06/08 06:20:37;;;;;;;0.00;0.00;;;17.20;91.60;;;;;;4156732;28;20147;-74
2022/06/08 06:23:08;;;;;;;0.00;0.00;;;17.30;91.70;;;;;;4169837;28;20057;-76
2022/06/08 06:25:56;;;;;;;0.00;0.00;;;17.40;91.60;;;;;;4173769;28;20051;-76
2022/06/08 06:28:36;;;;;;;0.00;0.00;;;17.50;91.20;;;;;;4184093;28;20115;-73
2022/06/08 06:31:43;;;;;;;0.00;0.00;;;17.70;91.00;;;;;;4184467;28;20033;-76
2022/06/08 06:34:14;;;;;;;0.00;0.00;;;17.90;90.70;;;;;;4170337;28;20050;-72
2022/06/08 06:36:43;;;;;;;0.00;0.00;;;17.90;90.40;;;;;;4184605;28;20049;-72
2022/06/08 06:39:11;;;;;;;0.00;0.00;;;18.00;90.20;;;;;;4170145;28;20055;-75
2022/06/08 06:41:38;;;;;;;0.00;0.00;;;18.10;90.20;;;;;;4169942;28;20049;-76
2022/06/08 06:44:05;;;;;;;0.00;0.00;;;18.30;90.00;;;;;;4169818;28;20060;-74
2022/06/08 06:46:35;;;;;;;0.00;0.00;;;18.40;89.90;;;;;;4170354;28;20056;-77
2022/06/08 06:49:04;;;;;;;0.00;0.00;;;18.60;89.30;;;;;;4184066;28;20053;-74
2022/06/08 06:51:29;;;;;;;0.00;0.00;;;18.70;89.00;;;;;;4157115;28;20554;-72
2022/06/08 06:53:51;;;;;;;0.00;0.00;;;18.60;87.90;;;;;;4170119;28;20057;-72
2022/06/08 06:56:15;;;;;;;0.00;0.00;;;18.60;88.00;;;;;;4170298;28;20049;-74
2022/06/08 06:58:53;;;;;;;0.00;0.00;;;18.60;88.30;;;;;;4183636;28;20171;-74
2022/06/08 07:01:18;;;;;;;0.00;0.00;;;18.50;88.70;;;;;;4157025;28;20088;-75
2022/06/08 07:03:40;;;;;;;0.00;0.00;;;18.50;88.50;;;;;;4170277;28;20122;-75
2022/06/08 07:06:03;;;;;;;0.00;0.00;;;18.40;88.80;;;;;;4169681;28;20054;-75
2022/06/08 07:08:26;;;;;;;0.00;0.00;;;18.40;89.60;;;;;;4156169;28;20069;-74
2022/06/08 07:13:32;;;;;;;;;;;18.30;89.80;;;;;;4183944;28;20107;-76
2022/06/08 07:15:57;;;;;;;0.00;0.00;;;18.40;90.00;;;;;;4169911;28;20020;-75
2022/06/08 07:18:24;;;;;;;0.00;0.00;;;18.50;89.60;;;;;;4169693;28;20051;-74
2022/06/08 07:20:46;;;;;;;0.00;0.00;;;18.50;89.60;;;;;;4184309;28;20060;-75
2022/06/08 07:23:10;;;;;;;0.00;0.00;;;18.60;89.70;;;;;;4183683;28;20072;-75
2022/06/08 07:25:38;;;;;;;0.00;0.00;;;18.80;89.40;;;;;;4169364;28;20042;-76
2022/06/08 07:28:02;;;;;;;0.00;0.00;;;18.90;88.90;;;;;;4183970;28;20479;-71
2022/06/08 07:30:26;;;;;;;0.00;0.00;;;19.00;88.60;;;;;;4170126;28;20073;-74
2022/06/08 07:32:51;;;;;;;0.00;0.00;;;19.10;89.00;;;;;;4169665;28;20041;-72
2022/06/08 07:35:13;;;;;;;0.00;0.00;;;19.20;88.60;;;;;;4171825;28;20081;-73
2022/06/08 07:37:37;;;;;;;0.00;0.00;;;19.00;88.40;;;;;;4173435;28;20479;-76
2022/06/08 07:39:59;;;;;;;0.00;0.00;;;18.90;88.80;;;;;;4173300;28;20383;-73
2022/06/08 07:42:26;;;;;;;0.00;0.00;;;19.00;88.60;;;;;;4186599;28;20128;-74
2022/06/08 07:44:50;;;;;;;0.00;0.00;;;19.00;89.20;;;;;;4186343;28;20075;-73
2022/06/08 07:47:15;;;;;;;0.00;0.00;;;19.10;89.60;;;;;;4158995;28;20556;-73
2022/06/08 07:49:49;;;;;;;0.00;0.00;;;19.40;89.30;;;;;;4159535;28;20522;-73
2022/06/08 07:52:17;;;;;;;0.00;0.00;;;19.30;89.10;;;;;;4186370;28;20045;-73
2022/06/08 07:54:42;;;;;;;0.00;0.00;;;19.20;89.40;;;;;;4172909;28;20056;-74
2022/06/08 07:57:06;;;;;;;0.00;0.00;;;19.30;88.50;;;;;;4172662;28;20055;-75
2022/06/08 07:59:31;;;;;;;0.00;0.00;;;19.20;88.00;;;;;;4172533;28;20041;-74
2022/06/08 08:01:58;;;;;;;0.00;0.00;;;19.20;88.50;;;;;;4186329;28;20061;-74
2022/06/08 08:04:21;;;;;;;0.00;0.00;;;19.30;88.60;;;;;;4186236;28;20090;-73
2022/06/08 08:06:46;;;;;;;0.00;0.00;;;19.40;88.70;;;;;;4172821;28;20099;-74
2022/06/08 08:09:15;;;;;;;0.00;0.00;;;19.40;88.20;;;;;;4186410;28;20045;-72
2022/06/08 08:11:40;;;;;;;0.00;0.00;;;19.30;87.40;;;;;;4199834;28;20139;-74
2022/06/08 08:14:04;;;;;;;0.00;0.00;;;19.40;86.80;;;;;;4185888;28;20048;-75
2022/06/08 08:16:28;;;;;;;0.00;0.00;;;19.60;86.10;;;;;;4172197;28;20056;-72
2022/06/08 08:18:58;;;;;;;0.00;0.00;;;19.60;85.00;;;;;;4186721;28;20051;-74
2022/06/08 08:21:20;;;;;;;0.00;0.00;;;19.70;85.70;;;;;;4185903;28;20029;-73
2022/06/08 08:23:44;;;;;;;0.00;0.00;;;19.80;85.90;;;;;;4158332;28;20045;-73
2022/06/08 08:26:11;;;;;;;0.00;0.00;;;19.60;86.00;;;;;;4186102;28;20045;-73
2022/06/08 08:28:34;;;;;;;0.00;0.00;;;19.70;85.00;;;;;;4185811;28;20392;-73
2022/06/08 08:30:56;;;;;;;0.00;0.00;;;19.70;83.80;;;;;;4186208;28;20556;-74
2022/06/08 08:33:27;;;;;;;0.00;0.00;;;19.90;84.10;;;;;;4171879;28;20057;-74
2022/06/08 08:35:52;;;;;;;0.00;0.00;;;20.00;84.90;;;;;;4172590;28;20064;-73
2022/06/08 08:38:15;;;;;;;0.00;0.00;;;20.10;85.90;;;;;;4158378;28;20381;-76
2022/06/08 08:40:45;;;;;;;0.00;0.00;;;20.30;85.00;;;;;;4171761;28;20053;-72
2022/06/08 08:43:12;;;;;;;0.00;0.00;;;20.40;84.90;;;;;;4185762;28;20439;-72
2022/06/08 08:45:46;;;;;;;0.00;0.00;;;20.50;83.20;;;;;;4171011;28;20045;-74
2022/06/08 08:48:24;;;;;;;0.00;0.00;;;20.40;83.20;;;;;;4158053;28;20040;-71
2022/06/08 08:50:56;;;;;;;0.00;0.00;;;20.50;82.40;;;;;;4164616;28;20046;-75
2022/06/08 08:53:26;;;;;;;0.00;0.00;;;20.60;82.10;;;;;;4185269;28;20117;-76
2022/06/08 08:55:58;;;;;;;0.00;0.00;;;20.50;82.40;;;;;;4171479;28;20053;-74
2022/06/08 08:58:29;;;;;;;0.00;0.00;;;20.40;81.30;;;;;;4185596;28;20130;-76
2022/06/08 09:01:23;;;;;;;0.00;0.00;;;20.30;82.20;;;;;;4185249;28;20452;-73
2022/06/08 09:03:53;;;;;;;0.00;0.00;;;20.40;83.10;;;;;;4171220;28;20042;-73
2022/06/08 09:06:22;;;;;;;0.00;0.00;;;20.60;82.80;;;;;;4185115;28;20043;-72
2022/06/08 09:09:00;;;;;;;0.00;0.00;;;20.80;82.00;;;;;;4158165;28;20074;-74
2022/06/08 09:11:33;;;;;;;0.00;0.00;;;21.00;81.50;;;;;;4185221;28;20048;-73
2022/06/08 09:14:07;;;;;;;0.00;0.00;;;20.90;80.40;;;;;;4185003;28;20037;-74
2022/06/08 09:16:39;;;;;;;0.00;0.00;;;20.90;79.00;;;;;;4171042;28;20073;-77
2022/06/08 09:19:22;;;;;;;0.00;0.00;;;20.70;78.60;;;;;;4171253;28;20091;-75
2022/06/08 09:21:45;;;;;;;0.00;0.00;;;20.70;78.60;;;;;;4171005;28;20041;-74
2022/06/08 09:24:26;;;;;;;0.00;0.00;;;20.60;77.70;;;;;;4170892;28;20048;-72
2022/06/08 09:27:05;;;;;;;0.00;0.00;;;20.60;77.10;;;;;;4184810;28;20049;-73
2022/06/08 09:29:29;;;;;;;0.00;0.00;;;20.60;77.70;;;;;;4170917;28;20049;-72
2022/06/08 09:31:55;;;;;;;0.00;0.00;;;20.60;77.70;;;;;;4157743;28;20046;-73
2022/06/08 09:34:20;;;;;;;0.00;0.00;;;20.80;77.30;;;;;;4171532;28;20057;-74
2022/06/08 09:37:01;;;;;;;0.00;0.00;;;20.70;77.00;;;;;;4184846;28;20037;-74
2022/06/08 09:39:23;;;;;;;0.00;0.00;;;20.70;77.90;;;;;;4185552;28;20479;-73
2022/06/08 09:41:54;;;;;;;0.00;0.00;;;20.90;77.20;;;;;;4184746;28;20037;-74
2022/06/08 09:44:32;;;;;;;0.00;0.00;;;21.10;77.70;;;;;;4170650;28;20046;-74
2022/06/08 09:52:53;;;;;;;0.00;0.00;;;21.50;74.80;;;;;;4184765;28;20053;-74
2022/06/08 09:55:25;;;;;;;0.00;0.00;;;21.70;71.70;;;;;;4184398;28;20060;-75
2022/06/08 09:57:56;;;;;;;0.00;0.00;;;21.60;71.80;;;;;;4169518;28;20128;-73
2022/06/08 10:00:42;;;;;;;0.00;0.00;;;21.70;72.10;;;;;;4184250;28;20045;-74
2022/06/08 10:03:32;;;;;;;0.00;0.00;;;21.90;72.50;;;;;;4198059;28;20052;-73
2022/06/08 10:06:06;;;;;;;0.00;0.00;;;22.00;72.80;;;;;;4170236;28;20053;-73
2022/06/08 10:08:52;;;;;;;0.00;0.00;;;22.10;70.80;;;;;;4184458;28;20298;-73
2022/06/08 10:11:34;;;;;;;0.00;0.00;;;21.80;71.30;;;;;;4169716;28;20059;-75
2022/06/08 10:14:20;;;;;;;0.00;0.00;;;21.60;71.90;;;;;;4170199;28;20057;-72
2022/06/08 10:16:59;;;;;;;0.00;0.00;;;21.80;71.20;;;;;;4183993;28;20092;-74
2022/06/08 10:19:32;;;;;;;0.00;0.00;;;21.80;72.70;;;;;;4198145;28;20044;-75
2022/06/08 10:22:01;;;;;;;0.00;0.00;;;22.00;72.60;;;;;;4170334;28;20480;-76
2022/06/08 10:24:29;;;;;;;0.00;0.00;;;22.20;72.90;;;;;;4170325;28;20052;-74
2022/06/08 10:27:13;;;;;;;0.00;0.00;;;22.40;72.40;;;;;;4170093;28;20484;-76
2022/06/08 10:29:45;;;;;;;0.00;0.00;;;22.60;71.80;;;;;;4169121;28;20053;-76
2022/06/08 10:32:23;;;;;;;0.00;0.00;;;22.60;70.40;;;;;;4169560;28;20111;-76
2022/06/08 10:34:52;;;;;;;0.00;0.00;;;22.40;72.80;;;;;;4169688;28;20089;-73
2022/06/08 10:37:22;;;;;;;0.00;0.00;;;22.40;72.50;;;;;;4183928;28;20049;-74
2022/06/08 10:39:49;;;;;;;0.00;0.00;;;22.40;72.40;;;;;;4183901;28;20087;-77
2022/06/08 10:44:53;;;;;;;0.00;0.00;;;22.70;72.40;;;;;;4183821;28;20056;-75
2022/06/08 10:47:18;;;;;;;0.00;0.00;;;22.90;72.10;;;;;;4183601;28;20391;-74
2022/06/08 10:49:40;;;;;;;0.00;0.00;;;22.90;70.50;;;;;;4170334;28;20483;-74
2022/06/08 10:52:24;;;;;;;0.00;0.00;;;23.00;70.50;;;;;;4184377;28;20465;-77
2022/06/08 10:54:54;;;;;;;0.00;0.00;;;23.20;70.10;;;;;;4183844;28;20037;-74
2022/06/08 10:57:35;;;;;;;0.00;0.00;;;23.30;69.50;;;;;;4156769;28;20050;-73
2022/06/08 11:00:23;;;;;;;0.00;0.00;;;23.40;66.50;;;;;;4183312;28;20044;-75
2022/06/08 11:03:20;;;;;;;0.00;0.00;;;23.40;64.80;;;;;;4149731;28;20072;-72
2022/06/08 11:05:47;;;;;;;0.00;0.00;;;23.40;64.30;;;;;;4168180;28;20140;-77
2022/06/08 11:08:18;;;;;;;0.00;0.00;;;23.40;64.10;;;;;;4170957;28;20045;-75
2022/06/08 11:13:22;;;;;;;0.00;0.00;;;23.50;62.50;;;;;;4186844;28;20044;-71
2022/06/08 11:16:07;;;;;;;0.00;0.00;;;23.50;61.20;;;;;;4172928;28;20132;-71
2022/06/08 11:18:35;;;;;;;0.00;0.00;;;23.40;63.30;;;;;;4187179;28;20420;-73
2022/06/08 11:21:18;;;;;;;0.00;0.00;;;23.40;61.50;;;;;;4186832;28;20056;-72
2022/06/08 11:23:59;;;;;;;0.00;0.00;;;23.60;61.90;;;;;;4187007;28;20052;-73
2022/06/08 11:26:23;;;;;;;0.00;0.00;;;23.70;60.20;;;;;;4186784;28;20053;-74
2022/06/08 11:28:50;;;;;;;0.00;0.00;;;23.40;58.40;;;;;;4186698;28;20144;-70
2022/06/08 11:31:27;;;;;;;0.00;0.00;;;23.50;59.20;;;;;;4186725;28;20095;-74
2022/06/08 11:34:11;;;;;;;0.00;0.00;;;23.60;59.20;;;;;;4186884;28;20148;-71
2022/06/08 11:36:35;;;;;;;0.00;0.00;;;23.40;60.50;;;;;;4172931;28;20088;-73
2022/06/08 11:39:15;;;;;;;0.00;0.00;;;23.50;60.70;;;;;;4200590;28;20037;-72
2022/06/08 11:41:44;;;;;;;0.00;0.00;;;23.70;60.20;;;;;;4172639;28;20551;-72
2022/06/08 11:44:16;;;;;;;0.00;0.00;;;24.00;61.10;;;;;;4186446;28;20037;-71
2022/06/08 11:46:45;;;;;;;0.00;0.00;;;24.20;61.50;;;;;;4125194;28;20491;-73
2022/06/08 11:49:37;;;;;;;0.00;0.00;;;24.30;60.70;;;;;;4172712;28;20548;-74
2022/06/08 11:52:33;;;;;;;0.00;0.00;;;24.30;61.70;;;;;;4172557;28;20053;-73
2022/06/08 11:55:26;;;;;;;0.00;0.00;;;24.30;61.70;;;;;;4172685;28;20438;-74
2022/06/08 11:57:51;;;;;;;0.00;0.00;;;24.30;60.20;;;;;;4165903;28;20057;-74
2022/06/08 12:00:23;;;;;;;0.00;0.00;;;24.20;60.20;;;;;;4172970;28;20136;-72
2022/06/08 12:02:56;;;;;;;0.00;0.00;;;24.40;60.00;;;;;;4172851;28;20041;-72
2022/06/08 12:05:27;;;;;;;0.00;0.00;;;24.40;59.60;;;;;;4186285;28;20056;-74
2022/06/08 12:08:09;;;;;;;0.00;0.00;;;24.40;60.30;;;;;;4199907;28;20040;-71
2022/06/08 12:10:52;;;;;;;0.00;0.00;;;24.40;59.30;;;;;;4174697;28;20045;-74
2022/06/08 12:13:20;;;;;;;0.00;0.00;;;24.30;58.60;;;;;;4172374;28;20049;-73
2022/06/08 12:15:44;;;;;;;0.00;0.00;;;24.40;59.90;;;;;;4158565;28;20135;-74
2022/06/08 12:18:28;;;;;;;0.00;0.00;;;24.50;58.90;;;;;;4186018;28;20037;-73
2022/06/08 12:21:24;;;;;;;0.00;0.00;;;24.60;58.60;;;;;;4171184;28;20088;-73
2022/06/08 12:24:10;;;;;;;0.00;0.00;;;24.60;59.20;;;;;;4172189;28;20485;-74
2022/06/08 12:26:40;;;;;;;0.00;0.00;;;24.60;59.30;;;;;;4172123;28;20057;-73
2022/06/08 12:29:19;;;;;;;0.00;0.00;;;24.60;58.60;;;;;;4171967;28;20045;-73
2022/06/08 12:31:44;;;;;;;0.00;0.00;;;24.50;59.10;;;;;;4171392;28;20046;-76
2022/06/08 12:34:26;;;;;;;0.00;0.00;;;24.60;58.90;;;;;;4185372;28;20045;-74
2022/06/08 12:36:48;;;;;;;0.00;0.00;;;24.60;58.40;;;;;;4171700;28;20136;-72
2022/06/08 12:39:15;;;;;;;0.00;0.00;;;24.50;57.90;;;;;;4172157;28;20106;-74
2022/06/08 12:41:43;;;;;;;0.00;0.00;;;24.40;58.00;;;;;;4185725;28;20383;-74
2022/06/08 12:44:16;;;;;;;0.00;0.00;;;24.30;58.10;;;;;;4157808;28;20058;-74
2022/06/08 12:46:52;;;;;;;0.00;0.00;;;24.30;57.60;;;;;;4185318;28;20044;-74
2022/06/08 12:49:25;;;;;;;0.00;0.00;;;24.20;57.60;;;;;;4157832;28;20042;-76
2022/06/08 12:51:49;;;;;;;0.00;0.00;;;24.20;58.00;;;;;;4171437;28;20044;-73
2022/06/08 12:54:21;;;;;;;0.00;0.00;;;24.10;58.40;;;;;;4185599;28;20099;-73
2022/06/08 12:56:47;;;;;;;0.00;0.00;;;24.10;58.60;;;;;;4171537;28;20570;-73
2022/06/08 12:59:09;;;;;;;0.00;0.00;;;24.20;58.80;;;;;;4171562;28;20049;-74
2022/06/08 13:01:35;;;;;;;0.00;0.00;;;24.20;58.90;;;;;;4172040;28;20059;-73
2022/06/08 13:03:57;;;;;;;0.00;0.00;;;24.10;59.00;;;;;;4171643;28;20049;-74
2022/06/08 13:06:24;;;;;;;0.00;0.00;;;24.00;59.60;;;;;;4171186;28;20051;-75
2022/06/08 13:08:48;;;;;;;0.00;0.00;;;23.60;60.00;;;;;;4185015;28;20044;-76
2022/06/08 13:11:18;;;;;;;0.00;0.00;;;23.30;59.60;;;;;;4185131;28;20052;-74
2022/06/08 13:13:45;;;;;;;0.00;0.00;;;23.00;59.40;;;;;;4184994;28;20071;-75
2022/06/08 13:16:25;;;;;;;0.00;0.00;;;22.80;60.00;;;;;;4185100;28;20044;-74
2022/06/08 13:18:50;;;;;;;0.00;0.00;;;22.60;60.40;;;;;;4157560;28;20038;-73
2022/06/08 13:21:15;;;;;;;0.00;0.00;;;22.40;61.00;;;;;;4171668;28;20091;-74
2022/06/08 13:23:37;;;;;;;0.00;0.00;;;22.30;61.00;;;;;;4184875;28;20387;-71